createdAt,value
2019-04-29T00:00:50.529Z,13.30
2019-04-29T00:03:19.677Z,13.30
2019-04-29T00:05:48.361Z,13.30
2019-04-29T00:08:17.124Z,13.30
2019-04-29T00:10:46.104Z,13.30
2019-04-29T00:13:15.122Z,13.30
2019-04-29T00:16:04.099Z,13.30
2019-04-29T00:18:44.986Z,13.20
2019-04-29T00:21:13.893Z,13.10
2019-04-29T00:23:42.599Z,13.20
2019-04-29T00:26:11.132Z,13.20
2019-04-29T00:28:40.226Z,13.30
2019-04-29T00:31:08.666Z,13.30
2019-04-29T00:33:38.485Z,13.30
2019-04-29T00:36:08.902Z,13.20
2019-04-29T00:38:58.615Z,13.20
2019-04-29T00:41:46.689Z,13.30
2019-04-29T00:44:16.364Z,13.30
2019-04-29T00:46:45.474Z,13.30
2019-04-29T00:49:14.174Z,13.30
2019-04-29T00:51:42.598Z,13.30
2019-04-29T00:54:30.894Z,13.30
2019-04-29T00:56:59.279Z,13.30
2019-04-29T00:59:27.975Z,13.20
2019-04-29T01:01:56.825Z,13.20
2019-04-29T01:04:25.638Z,13.30
2019-04-29T01:06:54.422Z,13.30
2019-04-29T01:09:24.593Z,13.20
2019-04-29T01:11:53.207Z,13.20
2019-04-29T01:14:21.988Z,13.20
2019-04-29T01:16:50.707Z,13.20
2019-04-29T01:19:19.719Z,13.20
2019-04-29T01:21:49.361Z,13.30
2019-04-29T01:24:18.125Z,13.30
2019-04-29T01:27:12.372Z,13.30
2019-04-29T01:29:41.201Z,13.30
2019-04-29T01:32:10.202Z,13.20
2019-04-29T01:34:54.239Z,13.30
2019-04-29T01:37:49.851Z,13.30
2019-04-29T01:40:38.885Z,13.20
2019-04-29T01:43:07.320Z,13.20
2019-04-29T01:45:35.944Z,13.20
2019-04-29T01:48:04.594Z,13.10
2019-04-29T01:50:32.948Z,13.20
2019-04-29T01:53:01.678Z,13.20
2019-04-29T01:55:30.072Z,13.20
2019-04-29T01:57:58.717Z,13.20
2019-04-29T02:00:27.126Z,13.20
2019-04-29T02:02:55.919Z,13.30
2019-04-29T02:05:24.478Z,13.30
2019-04-29T02:07:53.471Z,13.20
2019-04-29T02:10:30.791Z,13.20
2019-04-29T02:12:59.407Z,13.20
2019-04-29T02:15:28.178Z,13.20
2019-04-29T02:17:56.912Z,13.20
2019-04-29T02:20:25.544Z,13.20
2019-04-29T02:23:12.655Z,13.20
2019-04-29T02:25:42.735Z,13.20
2019-04-29T02:28:11.179Z,13.20
2019-04-29T02:30:42.935Z,13.20
2019-04-29T02:33:11.593Z,13.20
2019-04-29T02:35:40.688Z,13.20
2019-04-29T02:38:13.943Z,13.30
2019-04-29T02:40:51.865Z,13.30
2019-04-29T02:43:24.434Z,13.30
2019-04-29T02:45:53.075Z,13.20
2019-04-29T02:48:21.648Z,13.20
2019-04-29T02:50:50.335Z,13.20
2019-04-29T02:53:18.896Z,13.20
2019-04-29T02:55:50.840Z,13.20
2019-04-29T02:58:35.287Z,13.20
2019-04-29T03:01:23.321Z,13.20
2019-04-29T03:04:02.656Z,13.20
2019-04-29T03:06:31.236Z,13.20
2019-04-29T03:08:59.960Z,13.20
2019-04-29T03:11:30.213Z,13.20
2019-04-29T03:13:58.664Z,13.20
2019-04-29T03:16:27.519Z,13.20
2019-04-29T03:19:00.896Z,13.10
2019-04-29T03:21:46.884Z,13.10
2019-04-29T03:24:15.575Z,13.10
2019-04-29T03:26:44.151Z,13.10
2019-04-29T03:29:22.031Z,13.20
2019-04-29T03:31:53.034Z,13.20
2019-04-29T03:34:22.098Z,13.20
2019-04-29T03:36:51.753Z,13.30
2019-04-29T03:39:20.454Z,13.30
2019-04-29T03:41:51.263Z,13.30
2019-04-29T03:44:19.760Z,13.20
2019-04-29T03:46:48.687Z,13.20
2019-04-29T03:49:17.068Z,13.30
2019-04-29T03:51:45.665Z,13.30
2019-04-29T03:54:14.418Z,13.40
2019-04-29T03:56:44.284Z,13.30
2019-04-29T03:59:12.726Z,13.40
2019-04-29T04:01:52.334Z,13.40
2019-04-29T04:04:39.264Z,13.40
2019-04-29T04:07:37.634Z,13.50
2019-04-29T04:10:07.839Z,13.50
2019-04-29T04:12:36.352Z,13.40
2019-04-29T04:15:05.409Z,13.50
2019-04-29T04:17:40.297Z,13.40
2019-04-29T04:20:09.545Z,13.50
2019-04-29T04:22:47.749Z,13.50
2019-04-29T04:25:17.361Z,13.50
2019-04-29T04:27:46.239Z,13.50
2019-04-29T04:30:15.256Z,13.50
2019-04-29T04:32:44.390Z,13.50
2019-04-29T04:35:13.589Z,13.50
2019-04-29T04:37:43.738Z,13.50
2019-04-29T04:40:17.480Z,13.50
2019-04-29T04:42:48.299Z,13.50
2019-04-29T04:45:17.432Z,13.60
2019-04-29T04:47:46.062Z,13.50
2019-04-29T04:50:15.034Z,13.60
2019-04-29T04:52:43.854Z,13.70
2019-04-29T04:55:13.367Z,13.80
2019-04-29T04:57:42.049Z,13.80
2019-04-29T05:00:20.280Z,13.80
2019-04-29T05:02:49.050Z,13.80
2019-04-29T05:05:22.331Z,13.80
2019-04-29T05:07:52.388Z,14.00
2019-04-29T05:10:21.428Z,14.00
2019-04-29T05:12:50.134Z,14.10
2019-04-29T05:15:18.799Z,14.10
2019-04-29T05:17:48.254Z,14.20
2019-04-29T05:20:17.541Z,14.20
2019-04-29T05:23:01.078Z,14.20
2019-04-29T05:25:32.608Z,14.20
2019-04-29T05:28:00.959Z,14.20
2019-04-29T05:30:29.739Z,14.20
2019-04-29T05:32:58.646Z,14.20
2019-04-29T05:35:40.434Z,14.30
2019-04-29T05:38:24.253Z,14.40
2019-04-29T05:40:56.824Z,14.40
2019-04-29T05:43:35.165Z,14.50
2019-04-29T05:46:21.741Z,14.60
2019-04-29T05:48:49.424Z,14.60
2019-04-29T05:51:49.828Z,14.60
2019-04-29T05:54:18.998Z,14.60
2019-04-29T05:56:47.698Z,14.70
2019-04-29T05:59:16.935Z,14.70
2019-04-29T06:01:47.192Z,14.80
2019-04-29T06:04:18.045Z,14.80
2019-04-29T06:06:46.825Z,14.90
2019-04-29T06:09:16.629Z,15.00
2019-04-29T06:11:46.269Z,15.10
2019-04-29T06:14:14.793Z,15.10
2019-04-29T06:16:43.909Z,15.20
2019-04-29T06:19:12.407Z,15.30
2019-04-29T06:21:44.980Z,15.40
2019-04-29T06:24:13.771Z,15.60
2019-04-29T06:26:43.708Z,15.70
2019-04-29T06:29:12.588Z,15.70
2019-04-29T06:31:41.451Z,15.70
2019-04-29T06:34:09.978Z,15.70
2019-04-29T06:36:38.872Z,15.70
2019-04-29T06:39:08.088Z,15.80
2019-04-29T06:41:40.498Z,16.00
2019-04-29T06:44:15.943Z,16.20
2019-04-29T06:46:41.297Z,16.40
2019-04-29T06:49:10.862Z,16.70
2019-04-29T06:51:40.400Z,16.70
2019-04-29T06:54:09.576Z,16.70
2019-04-29T06:56:38.412Z,16.90
2019-04-29T06:59:07.588Z,17.00
2019-04-29T07:01:38.668Z,17.20
2019-04-29T07:04:07.489Z,17.50
2019-04-29T07:06:36.604Z,17.50
2019-04-29T07:09:06.556Z,17.60
2019-04-29T07:11:36.514Z,17.80
2019-04-29T07:14:06.541Z,18.00
2019-04-29T07:16:36.047Z,18.10
2019-04-29T07:19:04.871Z,18.10
2019-04-29T07:21:33.869Z,18.00
2019-04-29T07:24:02.957Z,18.00
2019-04-29T07:26:32.104Z,18.00
2019-04-29T07:29:02.152Z,18.00
2019-04-29T07:31:33.187Z,18.10
2019-04-29T07:34:01.911Z,18.20
2019-04-29T07:36:31.180Z,18.20
2019-04-29T07:39:00.128Z,18.20
2019-04-29T07:41:32.020Z,18.20
2019-04-29T07:44:02.554Z,18.30
2019-04-29T07:47:01.825Z,18.50
2019-04-29T07:49:24.669Z,18.80
2019-04-29T07:51:53.533Z,19.50
2019-04-29T07:54:22.766Z,19.80
2019-04-29T07:56:52.088Z,19.80
2019-04-29T07:59:20.938Z,19.80
2019-04-29T08:01:49.646Z,19.80
2019-04-29T08:04:19.070Z,20.70
2019-04-29T08:06:48.081Z,22.10
2019-04-29T08:09:17.119Z,23.30
2019-04-29T08:11:47.496Z,24.40
2019-04-29T08:14:18.165Z,25.10
2019-04-29T08:16:47.420Z,25.50
2019-04-29T08:19:16.598Z,25.80
2019-04-29T08:21:49.616Z,26.20
2019-04-29T08:24:17.047Z,26.70
2019-04-29T08:26:47.750Z,26.90
2019-04-29T08:29:15.843Z,26.80
2019-04-29T08:31:44.964Z,26.60
2019-04-29T08:34:14.145Z,26.10
2019-04-29T08:36:43.858Z,25.70
2019-04-29T08:39:15.119Z,25.50
2019-04-29T08:41:45.214Z,25.30
2019-04-29T08:44:38.339Z,25.20
2019-04-29T08:47:18.061Z,25.10
2019-04-29T08:49:47.062Z,24.90
2019-04-29T08:52:16.546Z,24.90
2019-04-29T08:54:45.255Z,25.00
2019-04-29T08:57:14.231Z,24.90
2019-04-29T08:59:43.556Z,25.10
2019-04-29T09:02:12.481Z,25.00
2019-04-29T09:04:52.739Z,25.20
2019-04-29T09:07:12.792Z,25.20
2019-04-29T09:09:41.957Z,25.30
2019-04-29T09:12:10.629Z,25.20
2019-04-29T09:14:39.897Z,25.30
2019-04-29T09:17:19.729Z,25.50
2019-04-29T09:19:39.631Z,25.90
2019-04-29T09:22:10.027Z,26.20
2019-04-29T09:24:43.588Z,26.30
2019-04-29T09:27:16.794Z,26.30
2019-04-29T09:29:46.513Z,26.40
2019-04-29T09:32:15.147Z,26.60
2019-04-29T09:34:43.683Z,26.70
2019-04-29T09:37:12.516Z,27.00
2019-04-29T09:39:43.930Z,27.60
2019-04-29T09:42:31.003Z,28.20
2019-04-29T09:45:24.054Z,29.00
2019-04-29T09:47:51.967Z,29.40
2019-04-29T09:50:20.971Z,30.00
2019-04-29T09:52:49.839Z,30.80
2019-04-29T09:55:20.311Z,31.50
2019-04-29T09:57:49.733Z,31.90
2019-04-29T10:00:29.763Z,31.40
2019-04-29T10:03:11.380Z,30.70
2019-04-29T10:05:50.209Z,29.90
2019-04-29T10:08:18.912Z,29.40
2019-04-29T10:10:47.828Z,29.50
2019-04-29T10:13:17.072Z,29.50
2019-04-29T10:16:03.642Z,29.30
2019-04-29T10:18:47.999Z,28.90
2019-04-29T10:21:21.589Z,29.10
2019-04-29T10:23:48.115Z,29.90
2019-04-29T10:26:17.389Z,30.70
2019-04-29T10:28:52.835Z,31.00
2019-04-29T10:31:21.692Z,30.40
2019-04-29T10:33:54.678Z,30.10
2019-04-29T10:36:21.917Z,30.10
2019-04-29T10:38:52.709Z,29.90
2019-04-29T10:41:31.674Z,29.80
2019-04-29T10:44:22.220Z,29.70
2019-04-29T10:47:24.026Z,30.50
2019-04-29T10:49:57.945Z,30.50
2019-04-29T10:52:27.070Z,29.90
2019-04-29T10:54:56.751Z,29.50
2019-04-29T10:57:29.012Z,29.10
2019-04-29T11:00:02.901Z,29.70
2019-04-29T11:02:38.777Z,30.60
2019-04-29T11:05:57.415Z,31.10
2019-04-29T11:08:25.228Z,31.20
2019-04-29T11:11:02.135Z,30.70
2019-04-29T11:13:25.469Z,30.80
2019-04-29T11:15:54.068Z,31.10
2019-04-29T11:18:25.049Z,31.50
2019-04-29T11:20:55.529Z,31.70
2019-04-29T11:23:42.123Z,31.50
2019-04-29T11:26:30.334Z,31.70
2019-04-29T11:28:59.862Z,32.00
2019-04-29T11:31:29.940Z,31.80
2019-04-29T11:34:18.329Z,31.30
2019-04-29T11:36:47.496Z,30.60
2019-04-29T11:39:16.972Z,30.30
2019-04-29T11:41:45.449Z,30.30
2019-04-29T11:44:14.349Z,30.40
2019-04-29T11:46:44.545Z,30.60
2019-04-29T11:49:16.916Z,30.90
2019-04-29T11:52:08.690Z,30.50
2019-04-29T11:54:19.979Z,30.40
2019-04-29T11:56:48.895Z,30.30
2019-04-29T11:59:35.917Z,29.90
2019-04-29T12:02:44.763Z,29.60
2019-04-29T12:05:31.595Z,29.20
2019-04-29T12:08:03.810Z,29.80
2019-04-29T12:10:31.728Z,30.50
2019-04-29T12:13:03.043Z,31.40
2019-04-29T12:15:40.126Z,32.00
2019-04-29T12:18:23.740Z,32.10
2019-04-29T12:21:04.615Z,31.30
2019-04-29T12:23:33.731Z,30.60
2019-04-29T12:26:04.967Z,30.10
2019-04-29T12:28:37.937Z,30.10
2019-04-29T12:31:12.764Z,30.20
2019-04-29T12:33:47.401Z,30.20
2019-04-29T12:36:16.645Z,30.10
2019-04-29T12:39:04.049Z,30.40
2019-04-29T12:41:51.394Z,30.90
2019-04-29T12:44:35.051Z,31.00
2019-04-29T12:46:59.011Z,30.70
2019-04-29T12:49:29.855Z,30.60
2019-04-29T12:52:00.264Z,30.10
2019-04-29T12:54:29.846Z,29.90
2019-04-29T12:56:58.805Z,29.60
2019-04-29T12:59:30.598Z,29.30
2019-04-29T13:02:19.979Z,29.50
2019-04-29T13:05:15.948Z,29.70
2019-04-29T13:08:09.861Z,29.50
2019-04-29T13:10:47.967Z,29.80
2019-04-29T13:13:20.139Z,30.20
2019-04-29T13:16:07.954Z,30.40
2019-04-29T13:18:48.991Z,30.70
2019-04-29T13:21:16.248Z,30.60
2019-04-29T13:23:59.041Z,30.70
2019-04-29T13:26:27.324Z,30.70
2019-04-29T13:28:58.863Z,30.60
2019-04-29T13:31:20.149Z,30.80
2019-04-29T13:33:51.059Z,30.40
2019-04-29T13:36:26.257Z,30.40
2019-04-29T13:38:50.535Z,30.70
2019-04-29T13:41:24.423Z,30.80
2019-04-29T13:43:52.513Z,30.90
2019-04-29T13:46:33.513Z,30.70
2019-04-29T13:49:20.886Z,30.70
2019-04-29T13:51:52.321Z,30.70
2019-04-29T13:54:22.789Z,30.70
2019-04-29T13:56:55.911Z,30.80
2019-04-29T13:59:49.126Z,31.00
2019-04-29T14:02:31.176Z,31.00
2019-04-29T14:05:00.185Z,30.50
2019-04-29T14:07:30.189Z,30.30
2019-04-29T14:09:59.300Z,30.10
2019-04-29T14:15:00.308Z,29.30
2019-04-29T14:17:31.812Z,29.40
2019-04-29T14:20:00.948Z,29.30
2019-04-29T14:22:30.187Z,29.10
2019-04-29T14:24:58.650Z,29.00
2019-04-29T14:27:27.757Z,28.90
2019-04-29T14:29:56.222Z,28.80
2019-04-29T14:32:35.912Z,28.80
2019-04-29T14:35:11.843Z,28.70
2019-04-29T14:37:54.424Z,28.50
2019-04-29T14:40:11.606Z,27.40
2019-04-29T14:43:27.167Z,26.70
2019-04-29T14:45:55.696Z,26.20
2019-04-29T14:48:41.770Z,26.10
2019-04-29T14:51:01.082Z,25.60
2019-04-29T14:53:31.744Z,25.50
2019-04-29T14:56:01.746Z,25.50
2019-04-29T14:58:30.119Z,25.20
2019-04-29T15:01:36.281Z,25.20
2019-04-29T15:04:18.055Z,25.40
2019-04-29T15:06:39.038Z,25.60
2019-04-29T15:09:16.751Z,25.50
2019-04-29T15:11:59.695Z,25.30
2019-04-29T15:15:02.244Z,25.10
2019-04-29T15:18:15.531Z,25.10
2019-04-29T15:21:06.228Z,24.70
2019-04-29T15:23:33.453Z,24.40
2019-04-29T15:26:02.281Z,24.30
2019-04-29T15:28:33.969Z,24.40
2019-04-29T15:31:02.543Z,24.20
2019-04-29T15:33:34.736Z,24.20
2019-04-29T15:36:04.923Z,23.80
2019-04-29T15:38:34.091Z,23.40
2019-04-29T15:41:05.454Z,22.90
2019-04-29T15:43:46.429Z,22.70
2019-04-29T15:46:11.447Z,22.60
2019-04-29T15:48:38.028Z,22.60
2019-04-29T15:51:09.111Z,22.30
2019-04-29T15:53:39.005Z,22.20
2019-04-29T15:58:42.295Z,22.50
2019-04-29T16:01:17.102Z,22.50
2019-04-29T16:03:41.962Z,22.70
2019-04-29T16:06:33.908Z,22.70
2019-04-29T16:09:30.428Z,22.70
2019-04-29T16:12:20.860Z,22.70
2019-04-29T16:14:49.705Z,22.60
2019-04-29T16:17:20.641Z,22.80
2019-04-29T16:19:48.324Z,22.70
2019-04-29T16:22:20.059Z,22.50
2019-04-29T16:24:46.983Z,22.50
2019-04-29T16:27:15.731Z,22.30
2019-04-29T16:29:46.297Z,22.20
2019-04-29T16:32:23.933Z,22.10
2019-04-29T16:34:52.392Z,22.10
2019-04-29T16:37:24.950Z,21.90
2019-04-29T16:39:52.775Z,21.90
2019-04-29T16:42:31.597Z,22.00
2019-04-29T16:45:00.051Z,22.00
2019-04-29T16:47:29.827Z,21.70
2019-04-29T16:50:04.588Z,21.80
2019-04-29T16:52:29.409Z,21.70
2019-04-29T16:54:59.103Z,21.60
2019-04-29T16:57:31.509Z,21.60
2019-04-29T17:00:00.195Z,21.50
2019-04-29T17:02:30.607Z,21.60
2019-04-29T17:04:59.398Z,21.70
2019-04-29T17:07:30.765Z,21.80
2019-04-29T17:10:17.475Z,21.70
2019-04-29T17:12:49.179Z,21.60
2019-04-29T17:15:25.021Z,21.50
2019-04-29T17:17:48.685Z,21.40
2019-04-29T17:20:17.563Z,21.50
2019-04-29T17:22:46.034Z,21.40
2019-04-29T17:25:16.648Z,21.20
2019-04-29T17:28:11.435Z,21.20
2019-04-29T17:30:56.051Z,21.10
2019-04-29T17:35:13.769Z,22.30
2019-04-29T17:35:14.860Z,20.80
2019-04-29T17:36:11.519Z,20.90
2019-04-29T17:38:40.686Z,20.90
2019-04-29T17:41:09.176Z,20.90
2019-04-29T17:43:47.687Z,20.70
2019-04-29T17:46:38.477Z,20.60
2019-04-29T17:49:28.220Z,20.50
2019-04-29T17:52:01.477Z,20.40
2019-04-29T17:54:29.847Z,20.40
2019-04-29T17:57:26.403Z,20.40
2019-04-29T18:00:05.130Z,20.40
2019-04-29T18:02:45.554Z,20.20
2019-04-29T18:05:54.470Z,20.20
2019-04-29T18:08:19.455Z,20.30
2019-04-29T18:10:52.370Z,20.30
2019-04-29T18:13:24.587Z,20.30
2019-04-29T18:16:01.638Z,20.30
2019-04-29T18:18:43.193Z,20.20
2019-04-29T18:21:28.097Z,20.20
2019-04-29T18:24:12.750Z,20.20
2019-04-29T18:26:52.698Z,20.20
2019-04-29T18:29:21.472Z,20.20
2019-04-29T18:31:50.272Z,20.20
2019-04-29T18:34:18.860Z,20.20
2019-04-29T18:36:47.761Z,20.20
2019-04-29T18:39:24.979Z,20.20
2019-04-29T18:41:51.161Z,20.20
2019-04-29T18:44:20.100Z,20.20
2019-04-29T18:46:53.630Z,20.20
2019-04-29T18:49:19.631Z,20.10
2019-04-29T18:51:48.357Z,20.10
2019-04-29T18:54:17.092Z,20.00
2019-04-29T18:56:45.720Z,19.90
2019-04-29T18:59:15.991Z,19.80
2019-04-29T19:01:47.680Z,19.80
2019-04-29T19:04:53.396Z,19.80
2019-04-29T19:07:20.338Z,19.60
2019-04-29T19:09:49.086Z,19.50
2019-04-29T19:12:17.826Z,19.50
2019-04-29T19:14:47.851Z,19.40
2019-04-29T19:17:16.973Z,19.40
2019-04-29T19:19:45.623Z,19.30
2019-04-29T19:22:15.686Z,19.30
2019-04-29T19:24:46.542Z,19.20
2019-04-29T19:27:15.054Z,19.10
2019-04-29T19:29:44.617Z,19.10
2019-04-29T19:32:13.406Z,19.00
2019-04-29T19:34:43.334Z,19.00
2019-04-29T19:37:12.142Z,18.90
2019-04-29T19:39:40.421Z,18.90
2019-04-29T19:42:08.429Z,18.80
2019-04-29T19:44:37.006Z,18.70
2019-04-29T19:47:05.073Z,18.60
2019-04-29T19:49:35.853Z,18.60
2019-04-29T19:52:05.255Z,18.50
2019-04-29T19:54:33.800Z,18.50
2019-04-29T19:57:04.755Z,18.40
2019-04-29T19:59:36.064Z,18.40
2019-04-29T20:02:10.155Z,18.30
2019-04-29T20:04:59.690Z,18.30
2019-04-29T20:07:28.454Z,18.30
2019-04-29T20:10:03.722Z,18.20
2019-04-29T20:12:27.582Z,18.20
2019-04-29T20:14:59.653Z,18.20
2019-04-29T20:17:49.607Z,18.20
2019-04-29T20:20:40.676Z,18.20
2019-04-29T20:23:09.417Z,18.20
2019-04-29T20:25:38.600Z,18.10
2019-04-29T20:28:12.718Z,18.00
2019-04-29T20:30:37.355Z,18.00
2019-04-29T20:33:09.619Z,17.90
2019-04-29T20:35:36.104Z,17.90
2019-04-29T20:38:08.791Z,17.90
2019-04-29T20:40:42.925Z,17.80
2019-04-29T20:43:08.401Z,17.90
2019-04-29T20:45:37.082Z,17.80
2019-04-29T20:48:06.412Z,17.80
2019-04-29T20:50:35.533Z,17.80
2019-04-29T20:53:18.440Z,17.80
2019-04-29T20:55:46.626Z,17.70
2019-04-29T20:58:15.580Z,17.70
2019-04-29T21:00:45.527Z,17.60
2019-04-29T21:03:26.885Z,17.60
2019-04-29T21:05:50.046Z,17.50
2019-04-29T21:08:19.081Z,17.50
2019-04-29T21:10:48.256Z,17.50
2019-04-29T21:13:34.783Z,17.50
2019-04-29T21:16:30.739Z,17.40
2019-04-29T21:19:07.960Z,17.40
2019-04-29T21:21:36.823Z,17.40
2019-04-29T21:24:06.493Z,17.40
2019-04-29T21:26:37.891Z,17.40
2019-04-29T21:29:05.710Z,17.30
2019-04-29T21:31:35.523Z,17.30
2019-04-29T21:34:05.449Z,17.20
2019-04-29T21:36:48.406Z,17.20
2019-04-29T21:39:32.431Z,17.10
2019-04-29T21:42:22.790Z,17.10
2019-04-29T21:44:51.198Z,17.00
2019-04-29T21:47:19.727Z,17.00
2019-04-29T21:49:49.876Z,16.90
2019-04-29T21:52:19.651Z,16.90
2019-04-29T21:54:49.293Z,16.90
2019-04-29T21:57:23.731Z,16.90
2019-04-29T21:59:49.636Z,16.70
2019-04-29T22:02:20.114Z,16.80
2019-04-29T22:04:50.695Z,16.80
2019-04-29T22:07:19.051Z,16.80
2019-04-29T22:09:50.075Z,16.70
2019-04-29T22:12:20.269Z,16.70
2019-04-29T22:14:52.582Z,16.70
2019-04-29T22:17:17.315Z,16.60
2019-04-29T22:19:45.281Z,16.60
2019-04-29T22:22:13.678Z,16.60
2019-04-29T22:24:41.739Z,16.60
2019-04-29T22:27:09.758Z,16.60
2019-04-29T22:29:39.331Z,16.50
2019-04-29T22:32:14.436Z,16.50
2019-04-29T22:34:38.046Z,16.40
2019-04-29T22:37:06.385Z,16.40
2019-04-29T22:39:35.643Z,16.40
2019-04-29T22:42:09.907Z,16.40
2019-04-29T22:44:39.242Z,16.30
2019-04-29T22:47:07.934Z,16.30
2019-04-29T22:49:36.277Z,16.30
2019-04-29T22:52:04.639Z,16.30
2019-04-29T22:54:32.730Z,16.20
2019-04-29T22:57:01.306Z,16.20
2019-04-29T22:59:30.746Z,16.10
2019-04-29T23:01:59.096Z,16.10
2019-04-29T23:04:28.766Z,16.10
2019-04-29T23:06:58.598Z,16.10
2019-04-29T23:09:27.326Z,16.10
2019-04-29T23:11:55.677Z,16.00
2019-04-29T23:14:25.250Z,16.00
2019-04-29T23:16:55.566Z,15.90
2019-04-29T23:19:25.965Z,15.90
2019-04-29T23:22:15.453Z,15.90
2019-04-29T23:24:57.256Z,15.80
2019-04-29T23:27:25.912Z,15.80
2019-04-29T23:29:54.421Z,15.80
2019-04-29T23:32:22.321Z,15.80
2019-04-29T23:34:50.393Z,15.80
2019-04-29T23:37:19.454Z,15.80
2019-04-29T23:39:48.694Z,15.70
2019-04-29T23:42:16.972Z,15.70
2019-04-29T23:44:45.186Z,15.80
2019-04-29T23:47:13.566Z,15.70
2019-04-29T23:49:42.841Z,15.70
2019-04-29T23:52:13.476Z,15.70
2019-04-29T23:54:46.938Z,15.70
2019-04-29T23:57:32.785Z,15.70
